Time;durP1;ratioP1;P1;durP2;ratioP2;P2;SDS_P1;SDS_P2;PMS_P1;PMS_P2;Temp;Humidity;BMP_temperature;BMP_pressure;BME280_temperature;BME280_humidity;BME280_pressure;Samples;Min_cycle;Max_cycle;Signal;HPM_P1;HPM_P2
2023/05/17 00:00:53;;;;;;;;;;;20.30;58.20;;;;;;6299139;28;19998;-73
2023/05/17 00:03:55;;;;;;;;;;;20.30;58.20;;;;;;6317014;28;19909;-73
2023/05/17 00:06:56;;;;;;;;;;;20.20;58.10;;;;;;6309201;28;19954;-73
2023/05/17 00:09:56;;;;;;;;;;;20.20;58.10;;;;;;6273917;28;19948;-73
2023/05/17 00:12:57;;;;;;;;;;;20.30;58.20;;;;;;6308101;28;19916;-73
2023/05/17 00:15:57;;;;;;;;;;;20.20;58.10;;;;;;6316400;28;20455;-73
2023/05/17 00:18:58;;;;;;;;;;;20.30;58.20;;;;;;6292841;28;19918;-73
2023/05/17 00:21:58;;;;;;;;;;;20.30;58.20;;;;;;6280589;28;19912;-73
2023/05/17 00:24:59;;;;;;;;;;;20.30;58.20;;;;;;6278633;28;19916;-73
2023/05/17 00:27:59;;;;;;;;;;;20.30;58.20;;;;;;6309824;28;19957;-73
2023/05/17 00:31:00;;;;;;;;;;;20.20;58.10;;;;;;6321186;28;19957;-73
2023/05/17 00:34:01;;;;;;;;;;;20.30;58.20;;;;;;6298320;28;19909;-72
2023/05/17 00:37:01;;;;;;;;;;;20.30;58.20;;;;;;6304705;28;19909;-72
2023/05/17 00:40:02;;;;;;;;;;;20.20;58.10;;;;;;6277961;28;19908;-72
2023/05/17 00:43:03;;;;;;;;;;;20.30;58.20;;;;;;6290572;28;19912;-73
2023/05/17 00:46:03;;;;;;;;;;;20.30;58.20;;;;;;6320623;28;19908;-73
2023/05/17 00:49:04;;;;;;;;;;;20.20;58.10;;;;;;6281818;28;19912;-73
2023/05/17 00:54:22;;;;;;;;;;;20.30;58.20;;;;;;6340117;27;20052;-72
2023/05/17 00:57:22;;;;;;;;;;;20.30;58.20;;;;;;6340098;28;20374;-72
2023/05/17 01:00:23;;;;;;;;;;;20.20;58.10;;;;;;6340135;28;19916;-71
2023/05/17 01:03:24;;;;;;;;;;;20.20;58.10;;;;;;6340156;28;19912;-72
2023/05/17 01:06:24;;;;;;;;;;;20.20;58.10;;;;;;6339677;28;19916;-72
2023/05/17 01:09:25;;;;;;;;;;;20.20;58.10;;;;;;6341135;28;19908;-71
2023/05/17 01:12:39;;;;;;;;;;;20.20;58.10;;;;;;6340986;28;19969;-71
2023/05/17 01:15:42;;;;;;;;;;;20.30;58.20;;;;;;6341135;28;19908;-71
2023/05/17 01:19:04;;;;;;;;;;;20.20;58.10;;;;;;6340311;28;20374;-71
2023/05/17 01:22:23;;;;;;;;;;;20.30;58.20;;;;;;6341069;28;19943;-72
2023/05/17 01:25:42;;;;;;;;;;;20.30;58.20;;;;;;6331212;28;19912;-72
2023/05/17 01:28:44;;;;;;;;;;;20.30;58.20;;;;;;6339680;28;20373;-72
2023/05/17 01:31:45;;;;;;;;;;;20.30;58.20;;;;;;6339628;28;19973;-72
2023/05/17 01:34:46;;;;;;;;;;;20.30;58.20;;;;;;6340046;28;19915;-72
2023/05/17 01:37:46;;;;;;;;;;;20.20;58.10;;;;;;6339295;28;20396;-72
2023/05/17 01:40:51;;;;;;;;;;;20.20;58.10;;;;;;6339384;28;20011;-72
2023/05/17 01:44:01;;;;;;;;;;;20.20;58.00;;;;;;6340114;28;19908;-71
2023/05/17 01:47:08;;;;;;;;;;;20.20;58.10;;;;;;6339697;28;19930;-72
2023/05/17 01:50:11;;;;;;;;;;;20.20;58.10;;;;;;6339681;28;20499;-71
2023/05/17 01:53:34;;;;;;;;;;;20.30;58.20;;;;;;6334684;28;19921;-72
2023/05/17 01:56:40;;;;;;;;;;;20.30;58.20;;;;;;6314189;28;19920;-71
2023/05/17 01:59:42;;;;;;;;;;;20.20;58.10;;;;;;6330666;28;19908;-72
2023/05/17 02:02:44;;;;;;;;;;;20.30;58.20;;;;;;6338251;28;19999;-72
2023/05/17 02:05:44;;;;;;;;;;;20.20;58.10;;;;;;6297732;28;19950;-71
2023/05/17 02:08:45;;;;;;;;;;;20.20;58.10;;;;;;6303939;28;19908;-71
2023/05/17 02:11:45;;;;;;;;;;;20.20;58.10;;;;;;6322727;28;19916;-72
2023/05/17 02:14:46;;;;;;;;;;;20.30;58.20;;;;;;6307738;28;20306;-71
2023/05/17 02:17:46;;;;;;;;;;;20.20;58.00;;;;;;6297469;28;20000;-72
2023/05/17 02:20:47;;;;;;;;;;;20.20;58.10;;;;;;6318997;28;20117;-72
2023/05/17 02:23:47;;;;;;;;;;;20.20;58.10;;;;;;6316621;28;19909;-72
2023/05/17 02:26:48;;;;;;;;;;;20.20;58.10;;;;;;6296452;28;20351;-71
2023/05/17 02:29:48;;;;;;;;;;;20.20;58.00;;;;;;6310150;28;19950;-72
2023/05/17 02:32:50;;;;;;;;;;;20.20;58.10;;;;;;6318957;28;19950;-71
2023/05/17 02:35:51;;;;;;;;;;;20.30;58.10;;;;;;6301454;28;19908;-72
2023/05/17 02:38:51;;;;;;;;;;;20.20;58.00;;;;;;6300227;28;20000;-71
2023/05/17 02:41:51;;;;;;;;;;;20.20;58.00;;;;;;6322045;28;20355;-72
2023/05/17 02:44:55;;;;;;;;;;;20.20;58.00;;;;;;6311009;28;19909;-71
2023/05/17 02:47:55;;;;;;;;;;;20.30;58.10;;;;;;6296661;28;19909;-72
2023/05/17 02:50:55;;;;;;;;;;;20.30;58.10;;;;;;6315789;28;20585;-71
2023/05/17 02:53:56;;;;;;;;;;;20.20;58.10;;;;;;6319506;28;20014;-72
2023/05/17 02:56:56;;;;;;;;;;;20.20;58.00;;;;;;6296355;28;19913;-72
2023/05/17 02:59:57;;;;;;;;;;;20.20;58.00;;;;;;6306154;28;19912;-72
2023/05/17 03:02:57;;;;;;;;;;;20.20;58.00;;;;;;6321452;28;19908;-72
2023/05/17 03:06:01;;;;;;;;;;;20.20;58.00;;;;;;6303786;28;19919;-72
2023/05/17 03:09:02;;;;;;;;;;;20.20;58.00;;;;;;6295719;28;19995;-72
2023/05/17 03:12:02;;;;;;;;;;;20.20;58.00;;;;;;6320882;28;19916;-71
2023/05/17 03:15:03;;;;;;;;;;;20.20;58.10;;;;;;6311626;28;19909;-71
2023/05/17 03:18:03;;;;;;;;;;;20.20;58.00;;;;;;6296146;28;19916;-72
2023/05/17 03:21:04;;;;;;;;;;;20.20;58.00;;;;;;6312279;28;20558;-72
2023/05/17 03:24:05;;;;;;;;;;;20.20;58.00;;;;;;6321314;28;19958;-72
2023/05/17 03:27:05;;;;;;;;;;;20.20;58.00;;;;;;6296369;28;19909;-72
2023/05/17 03:30:06;;;;;;;;;;;20.30;58.10;;;;;;6284611;28;20002;-72
2023/05/17 03:33:06;;;;;;;;;;;20.20;58.00;;;;;;6320814;28;20390;-71
2023/05/17 03:36:07;;;;;;;;;;;20.20;58.00;;;;;;6305756;28;19920;-72
2023/05/17 03:39:07;;;;;;;;;;;20.20;58.00;;;;;;6294320;28;19999;-72
2023/05/17 03:42:08;;;;;;;;;;;20.20;58.00;;;;;;6316542;28;19919;-72
2023/05/17 03:45:09;;;;;;;;;;;20.20;58.00;;;;;;6296910;28;19908;-72
2023/05/17 03:48:09;;;;;;;;;;;20.20;58.10;;;;;;6295123;28;19915;-71
2023/05/17 03:51:10;;;;;;;;;;;20.20;58.10;;;;;;6308043;28;19986;-71
2023/05/17 03:54:10;;;;;;;;;;;20.30;58.10;;;;;;6320348;28;19967;-71
2023/05/17 03:57:11;;;;;;;;;;;20.20;58.10;;;;;;6300169;28;20374;-72
2023/05/17 04:00:33;;;;;;;;;;;20.20;58.10;;;;;;6298146;28;19954;-72
2023/05/17 04:03:33;;;;;;;;;;;20.20;58.00;;;;;;6319890;28;19963;-71
2023/05/17 04:06:34;;;;;;;;;;;20.20;58.00;;;;;;6287395;28;20303;-72
2023/05/17 04:09:35;;;;;;;;;;;20.20;58.00;;;;;;6294227;28;19908;-72
2023/05/17 04:12:36;;;;;;;;;;;20.20;58.00;;;;;;6297952;28;20320;-72
2023/05/17 04:15:36;;;;;;;;;;;20.20;58.00;;;;;;6315160;28;19934;-71
2023/05/17 04:18:37;;;;;;;;;;;20.20;58.00;;;;;;6294531;28;20467;-72
2023/05/17 04:21:38;;;;;;;;;;;20.20;58.10;;;;;;6306884;28;19912;-71
2023/05/17 04:24:38;;;;;;;;;;;20.20;58.10;;;;;;6300963;28;20393;-72
2023/05/17 04:27:39;;;;;;;;;;;20.20;58.10;;;;;;6294518;28;19955;-72
2023/05/17 04:30:42;;;;;;;;;;;20.20;58.00;;;;;;6297410;28;19995;-72
2023/05/17 04:33:43;;;;;;;;;;;20.20;58.10;;;;;;6301209;28;19923;-72
2023/05/17 04:36:44;;;;;;;;;;;20.20;58.10;;;;;;6294492;28;19917;-71
2023/05/17 04:39:44;;;;;;;;;;;20.20;58.10;;;;;;6285952;28;19953;-72
2023/05/17 04:42:44;;;;;;;;;;;20.20;58.00;;;;;;6298412;28;19908;-71
2023/05/17 04:45:45;;;;;;;;;;;20.20;58.00;;;;;;6317476;28;20527;-72
2023/05/17 04:48:45;;;;;;;;;;;20.20;58.00;;;;;;6292903;28;19920;-71
2023/05/17 04:51:46;;;;;;;;;;;20.20;58.00;;;;;;6303165;28;19927;-71
2023/05/17 04:54:46;;;;;;;;;;;20.20;58.00;;;;;;6299243;28;20417;-71
2023/05/17 04:57:47;;;;;;;;;;;20.20;58.00;;;;;;6301176;28;19936;-72
2023/05/17 05:00:47;;;;;;;;;;;20.20;58.00;;;;;;6292435;28;19999;-72
2023/05/17 05:03:48;;;;;;;;;;;20.20;58.00;;;;;;6305928;28;19919;-72
2023/05/17 05:06:48;;;;;;;;;;;20.20;58.00;;;;;;6290256;28;20620;-72
2023/05/17 05:09:49;;;;;;;;;;;20.20;58.00;;;;;;6289137;28;19909;-71
2023/05/17 05:12:49;;;;;;;;;;;20.20;58.00;;;;;;6282048;28;19924;-71
2023/05/17 05:15:50;;;;;;;;;;;20.20;58.00;;;;;;6293759;28;19915;-76
2023/05/17 05:18:51;;;;;;;;;;;20.20;58.00;;;;;;6305816;28;19909;-71
2023/05/17 05:21:51;;;;;;;;;;;20.20;58.00;;;;;;6298333;28;19936;-71
2023/05/17 05:24:52;;;;;;;;;;;20.20;58.00;;;;;;6299111;28;19909;-72
2023/05/17 05:27:52;;;;;;;;;;;20.20;58.00;;;;;;6283420;28;20354;-72
2023/05/17 05:30:59;;;;;;;;;;;20.20;58.10;;;;;;6292998;28;20109;-72
2023/05/17 05:34:00;;;;;;;;;;;20.20;58.10;;;;;;6304885;28;20656;-72
2023/05/17 05:37:00;;;;;;;;;;;20.20;58.00;;;;;;6280176;28;20004;-71
2023/05/17 05:40:01;;;;;;;;;;;20.20;58.00;;;;;;6302409;28;19909;-71
2023/05/17 05:43:01;;;;;;;;;;;20.20;58.00;;;;;;6304756;28;20356;-72
2023/05/17 05:46:02;;;;;;;;;;;20.20;58.10;;;;;;6297806;28;19916;-72
2023/05/17 05:49:02;;;;;;;;;;;20.20;58.00;;;;;;6309370;28;20309;-71
2023/05/17 05:52:03;;;;;;;;;;;20.20;58.10;;;;;;6303819;28;19924;-71
2023/05/17 05:55:04;;;;;;;;;;;20.20;58.00;;;;;;6322235;28;19912;-71
2023/05/17 05:58:05;;;;;;;;;;;20.20;58.10;;;;;;6321367;28;20451;-72
2023/05/17 06:01:05;;;;;;;;;;;20.20;58.00;;;;;;6316181;28;19912;-72
2023/05/17 06:04:06;;;;;;;;;;;20.20;58.00;;;;;;6321295;28;19912;-71
2023/05/17 06:07:06;;;;;;;;;;;20.20;58.00;;;;;;6325031;28;19917;-72
2023/05/17 06:10:07;;;;;;;;;;;20.20;58.00;;;;;;6324141;28;20328;-71
2023/05/17 06:13:08;;;;;;;;;;;20.20;58.00;;;;;;6324493;28;20006;-72
2023/05/17 06:16:08;;;;;;;;;;;20.20;58.00;;;;;;6324111;28;19919;-71
2023/05/17 06:19:09;;;;;;;;;;;20.20;58.10;;;;;;6323819;28;19947;-72
2023/05/17 06:22:09;;;;;;;;;;;20.20;58.00;;;;;;6322587;28;19916;-71
2023/05/17 06:25:10;;;;;;;;;;;20.20;58.00;;;;;;6323017;28;20274;-71
2023/05/17 06:28:11;;;;;;;;;;;20.20;58.00;;;;;;6322971;28;19915;-72
2023/05/17 06:31:11;;;;;;;;;;;20.20;58.00;;;;;;6318179;28;19913;-72
2023/05/17 06:34:12;;;;;;;;;;;20.20;58.00;;;;;;6322178;28;19916;-72
2023/05/17 06:37:12;;;;;;;;;;;20.20;58.10;;;;;;6315388;28;19950;-71
2023/05/17 06:40:13;;;;;;;;;;;20.20;58.00;;;;;;6320673;28;20274;-71
2023/05/17 06:43:14;;;;;;;;;;;20.20;58.00;;;;;;6323671;28;19908;-71
2023/05/17 06:46:14;;;;;;;;;;;20.20;58.00;;;;;;6301597;28;19919;-72
2023/05/17 06:49:15;;;;;;;;;;;20.20;58.00;;;;;;6307808;28;19955;-71
2023/05/17 06:52:15;;;;;;;;;;;20.20;58.10;;;;;;6338440;28;19927;-71
2023/05/17 06:55:15;;;;;;;;;;;20.30;58.00;;;;;;6325757;28;19931;-72
2023/05/17 06:58:16;;;;;;;;;;;20.40;57.90;;;;;;6322733;28;20341;-71
2023/05/17 07:01:17;;;;;;;;;;;20.40;57.80;;;;;;6323196;28;19912;-71
2023/05/17 07:04:18;;;;;;;;;;;20.40;57.60;;;;;;6322697;28;19912;-71
2023/05/17 07:07:18;;;;;;;;;;;20.40;57.50;;;;;;6322261;28;20235;-71
2023/05/17 07:10:19;;;;;;;;;;;20.50;57.50;;;;;;6321682;28;20007;-71
2023/05/17 07:13:19;;;;;;;;;;;20.50;57.10;;;;;;6321698;28;19916;-71
2023/05/17 07:16:20;;;;;;;;;;;20.40;57.30;;;;;;6321794;28;19908;-71
2023/05/17 07:19:20;;;;;;;;;;;20.50;57.50;;;;;;6325931;28;20354;-71
2023/05/17 07:22:21;;;;;;;;;;;20.40;57.40;;;;;;6322298;28;19908;-72
2023/05/17 07:25:22;;;;;;;;;;;20.40;57.40;;;;;;6323242;28;20374;-72
2023/05/17 07:28:22;;;;;;;;;;;20.40;57.40;;;;;;6321323;28;19908;-71
2023/05/17 07:31:22;;;;;;;;;;;20.40;57.20;;;;;;6320243;28;19915;-71
2023/05/17 07:34:23;;;;;;;;;;;20.40;57.40;;;;;;6322384;28;19919;-71
2023/05/17 07:37:23;;;;;;;;;;;20.40;57.50;;;;;;6319830;28;19912;-72
2023/05/17 07:40:24;;;;;;;;;;;20.40;57.60;;;;;;6321779;28;19966;-71
2023/05/17 07:43:24;;;;;;;;;;;20.40;57.60;;;;;;6322216;28;19915;-73
2023/05/17 07:46:25;;;;;;;;;;;20.40;57.70;;;;;;6321750;28;20338;-72
2023/05/17 07:49:26;;;;;;;;;;;20.30;57.60;;;;;;6320225;28;19956;-72
2023/05/17 07:52:26;;;;;;;;;;;20.40;57.80;;;;;;6330217;28;20305;-72
2023/05/17 07:55:27;;;;;;;;;;;20.40;57.80;;;;;;6331103;28;19930;-71
2023/05/17 07:58:27;;;;;;;;;;;20.40;57.80;;;;;;6331289;28;19912;-71
2023/05/17 08:01:28;;;;;;;;;;;20.40;57.80;;;;;;6330977;28;19908;-71
2023/05/17 08:04:28;;;;;;;;;;;20.30;57.70;;;;;;6338150;28;19908;-71
2023/05/17 08:07:29;;;;;;;;;;;20.40;57.80;;;;;;6327970;28;19912;-72
2023/05/17 08:10:29;;;;;;;;;;;20.40;57.70;;;;;;6331940;28;20354;-72
2023/05/17 08:13:30;;;;;;;;;;;20.40;57.80;;;;;;6321331;28;19920;-72
2023/05/17 08:16:30;;;;;;;;;;;20.40;57.80;;;;;;6326430;28;20003;-72
2023/05/17 08:19:31;;;;;;;;;;;20.40;57.80;;;;;;6341662;28;19926;-71
2023/05/17 08:22:31;;;;;;;;;;;20.30;57.70;;;;;;6326380;28;19951;-71
2023/05/17 08:25:31;;;;;;;;;;;20.30;57.70;;;;;;6331089;28;20327;-72
2023/05/17 08:28:32;;;;;;;;;;;20.30;57.80;;;;;;6338215;28;19979;-71
2023/05/17 08:31:33;;;;;;;;;;;20.30;57.80;;;;;;6321642;28;19908;-72
2023/05/17 08:34:33;;;;;;;;;;;20.30;57.70;;;;;;6344671;28;19908;-72
2023/05/17 08:37:34;;;;;;;;;;;20.30;57.80;;;;;;6321231;28;19908;-71
2023/05/17 08:40:34;;;;;;;;;;;20.30;57.80;;;;;;6321349;28;19908;-71
2023/05/17 08:43:36;;;;;;;;;;;20.30;57.80;;;;;;6341598;28;19912;-71
2023/05/17 08:46:38;;;;;;;;;;;20.30;57.80;;;;;;6329922;28;19915;-72
2023/05/17 08:49:39;;;;;;;;;;;20.30;57.90;;;;;;6333522;28;20406;-71
2023/05/17 08:52:40;;;;;;;;;;;20.30;57.80;;;;;;6334385;28;19922;-71
2023/05/17 08:55:44;;;;;;;;;;;20.30;57.90;;;;;;6314021;28;19986;-71
2023/05/17 08:58:47;;;;;;;;;;;20.30;57.90;;;;;;6334057;28;19919;-72
2023/05/17 09:01:49;;;;;;;;;;;20.30;57.90;;;;;;6321696;28;19959;-71
2023/05/17 09:04:54;;;;;;;;;;;20.30;57.90;;;;;;6335890;28;19912;-71
2023/05/17 09:07:55;;;;;;;;;;;20.30;57.90;;;;;;6330422;28;20381;-71
2023/05/17 09:10:58;;;;;;;;;;;20.30;57.90;;;;;;6329197;28;19944;-72
2023/05/17 09:14:03;;;;;;;;;;;20.30;57.90;;;;;;6333761;28;19923;-72
2023/05/17 09:17:04;;;;;;;;;;;20.30;57.90;;;;;;6334499;28;19912;-72
2023/05/17 09:20:05;;;;;;;;;;;20.30;57.90;;;;;;6350971;28;20431;-71
2023/05/17 09:23:08;;;;;;;;;;;20.30;57.90;;;;;;6325824;28;19908;-71
2023/05/17 09:26:08;;;;;;;;;;;20.30;57.90;;;;;;6333491;28;19955;-71
2023/05/17 09:29:10;;;;;;;;;;;20.30;57.80;;;;;;6341291;28;20337;-72
2023/05/17 09:32:19;;;;;;;;;;;20.30;57.80;;;;;;6334435;28;19912;-71
2023/05/17 09:35:29;;;;;;;;;;;20.30;57.80;;;;;;6350032;28;20413;-72
2023/05/17 09:38:29;;;;;;;;;;;20.30;57.80;;;;;;6318141;28;19915;-71
2023/05/17 09:41:40;;;;;;;;;;;20.30;57.80;;;;;;6322605;28;19908;-72
2023/05/17 09:44:49;;;;;;;;;;;20.30;57.80;;;;;;6351322;28;20002;-71
2023/05/17 09:47:50;;;;;;;;;;;20.30;57.80;;;;;;6333500;28;19933;-71
2023/05/17 09:50:51;;;;;;;;;;;20.30;57.90;;;;;;6340635;28;19955;-71
2023/05/17 09:53:53;;;;;;;;;;;20.30;57.80;;;;;;6324769;28;20378;-71
2023/05/17 09:56:54;;;;;;;;;;;20.30;57.80;;;;;;6324516;28;20006;-71
2023/05/17 09:59:56;;;;;;;;;;;20.30;57.90;;;;;;6324455;28;19955;-71
2023/05/17 10:02:56;;;;;;;;;;;20.30;57.90;;;;;;6324646;28;19912;-71
2023/05/17 10:05:57;;;;;;;;;;;20.30;57.80;;;;;;6325135;28;19946;-71
2023/05/17 10:08:59;;;;;;;;;;;20.30;57.80;;;;;;6324616;28;20278;-71
2023/05/17 10:12:01;;;;;;;;;;;20.30;57.80;;;;;;6324928;28;19927;-71
2023/05/17 10:15:03;;;;;;;;;;;20.30;57.90;;;;;;6324094;28;20015;-71
2023/05/17 10:18:05;;;;;;;;;;;20.30;57.90;;;;;;6311910;28;19908;-71
2023/05/17 10:21:06;;;;;;;;;;;20.30;57.80;;;;;;6324429;28;19909;-71
2023/05/17 10:24:08;;;;;;;;;;;20.30;57.80;;;;;;6323043;28;19916;-70
2023/05/17 10:27:09;;;;;;;;;;;20.30;57.80;;;;;;6319825;28;20396;-71
2023/05/17 10:30:10;;;;;;;;;;;20.30;57.80;;;;;;6324352;28;19909;-71
2023/05/17 10:33:11;;;;;;;;;;;20.30;57.80;;;;;;6324459;28;19916;-71
2023/05/17 10:36:16;;;;;;;;;;;20.30;57.80;;;;;;6323989;28;19930;-71
2023/05/17 10:39:17;;;;;;;;;;;20.30;57.80;;;;;;6323883;28;19909;-71
2023/05/17 10:42:18;;;;;;;;;;;20.30;57.90;;;;;;6323806;28;19990;-71
2023/05/17 10:45:23;;;;;;;;;;;20.30;57.90;;;;;;6323607;28;19934;-71
2023/05/17 10:48:26;;;;;;;;;;;20.30;57.90;;;;;;6324042;28;19990;-71
2023/05/17 10:51:31;;;;;;;;;;;20.30;57.80;;;;;;6323599;28;19914;-71
2023/05/17 10:54:35;;;;;;;;;;;20.30;57.80;;;;;;6323222;28;19920;-71
2023/05/17 10:57:36;;;;;;;;;;;20.30;57.90;;;;;;6323900;28;19908;-71
2023/05/17 11:00:40;;;;;;;;;;;20.30;57.80;;;;;;6322736;28;20361;-71
2023/05/17 11:03:41;;;;;;;;;;;20.30;57.80;;;;;;6323799;28;20498;-71
2023/05/17 11:06:41;;;;;;;;;;;20.30;57.80;;;;;;6322974;28;19908;-71
2023/05/17 11:09:42;;;;;;;;;;;20.30;57.80;;;;;;6323050;28;19912;-71
2023/05/17 11:12:46;;;;;;;;;;;20.30;57.80;;;;;;6312176;28;19916;-71
2023/05/17 11:16:01;;;;;;;;;;;20.30;57.80;;;;;;6311197;28;19912;-71
2023/05/17 11:19:09;;;;;;;;;;;20.30;57.80;;;;;;6323019;28;19908;-71
2023/05/17 11:22:11;;;;;;;;;;;20.30;57.80;;;;;;6321912;28;20351;-71
2023/05/17 11:25:12;;;;;;;;;;;20.30;57.80;;;;;;6322760;28;20018;-71
2023/05/17 11:28:17;;;;;;;;;;;20.30;57.80;;;;;;6322801;28;20373;-71
2023/05/17 11:31:27;;;;;;;;;;;20.30;57.80;;;;;;6321759;28;20378;-71
2023/05/17 11:34:28;;;;;;;;;;;20.30;57.80;;;;;;6322684;28;20289;-71
2023/05/17 11:37:28;;;;;;;;;;;20.30;57.80;;;;;;6320428;28;19947;-71
2023/05/17 11:40:29;;;;;;;;;;;20.30;57.80;;;;;;6322302;28;19915;-71
2023/05/17 11:43:32;;;;;;;;;;;20.30;57.80;;;;;;6320774;28;19912;-71
2023/05/17 11:46:33;;;;;;;;;;;20.30;57.70;;;;;;6321402;28;19916;-71
2023/05/17 11:49:36;;;;;;;;;;;20.30;57.80;;;;;;6316643;28;19908;-71
2023/05/17 11:52:39;;;;;;;;;;;20.30;57.80;;;;;;6326315;28;20002;-71
2023/05/17 11:55:40;;;;;;;;;;;20.30;57.80;;;;;;6321893;28;20629;-71
2023/05/17 11:58:41;;;;;;;;;;;20.30;57.80;;;;;;6334934;28;19907;-71
2023/05/17 12:01:45;;;;;;;;;;;20.30;57.80;;;;;;6333053;28;19908;-71
2023/05/17 12:04:45;;;;;;;;;;;20.30;57.80;;;;;;6313788;28;19913;-71
2023/05/17 12:07:48;;;;;;;;;;;20.30;57.90;;;;;;6312880;28;20073;-71
2023/05/17 12:10:49;;;;;;;;;;;20.30;57.80;;;;;;6328032;28;19915;-71
2023/05/17 12:13:50;;;;;;;;;;;20.30;57.90;;;;;;6325795;28;19962;-71
2023/05/17 12:16:55;;;;;;;;;;;20.30;57.90;;;;;;6335944;28;20322;-71
2023/05/17 12:20:05;;;;;;;;;;;20.30;57.90;;;;;;6330806;28;19975;-72
2023/05/17 12:23:06;;;;;;;;;;;20.30;57.80;;;;;;6328861;28;19908;-71
2023/05/17 12:26:10;;;;;;;;;;;20.30;58.00;;;;;;6321514;28;20455;-72
2023/05/17 12:29:12;;;;;;;;;;;20.30;57.80;;;;;;6321914;28;19912;-71
2023/05/17 12:32:12;;;;;;;;;;;20.30;57.80;;;;;;6321914;28;19923;-71
2023/05/17 12:35:13;;;;;;;;;;;20.30;57.80;;;;;;6321968;28;19908;-72
2023/05/17 12:38:14;;;;;;;;;;;20.30;57.80;;;;;;6321780;28;19916;-72
2023/05/17 12:41:15;;;;;;;;;;;20.30;57.80;;;;;;6321878;28;19908;-71
2023/05/17 12:44:16;;;;;;;;;;;20.30;57.80;;;;;;6321791;28;19909;-71
2023/05/17 12:47:17;;;;;;;;;;;20.30;57.80;;;;;;6318710;28;19912;-71
2023/05/17 12:50:24;;;;;;;;;;;20.30;57.80;;;;;;6318428;28;19912;-71
2023/05/17 12:53:34;;;;;;;;;;;20.30;57.80;;;;;;6321434;28;19927;-71
2023/05/17 12:56:35;;;;;;;;;;;20.30;57.80;;;;;;6321838;28;19908;-71
2023/05/17 12:59:44;;;;;;;;;;;20.30;57.80;;;;;;6321626;28;19989;-71
2023/05/17 13:02:45;;;;;;;;;;;20.30;57.80;;;;;;6321663;28;20359;-71
2023/05/17 13:05:55;;;;;;;;;;;20.30;57.80;;;;;;6321760;28;19962;-71
2023/05/17 13:09:00;;;;;;;;;;;20.30;57.80;;;;;;6321049;28;19998;-71
2023/05/17 13:12:03;;;;;;;;;;;20.30;58.50;;;;;;6321414;28;20374;-71
2023/05/17 13:15:05;;;;;;;;;;;20.30;57.80;;;;;;6320965;28;19908;-71
2023/05/17 13:18:12;;;;;;;;;;;20.30;57.80;;;;;;6321419;28;19908;-72
2023/05/17 13:21:12;;;;;;;;;;;20.30;57.80;;;;;;6321365;28;20426;-72
2023/05/17 13:24:13;;;;;;;;;;;20.30;57.80;;;;;;6321422;28;19934;-71
2023/05/17 13:27:13;;;;;;;;;;;20.30;57.80;;;;;;6321254;28;20376;-71
2023/05/17 13:30:15;;;;;;;;;;;20.30;57.80;;;;;;6321395;28;19909;-71
2023/05/17 13:33:15;;;;;;;;;;;20.30;57.80;;;;;;6320832;28;20015;-71
2023/05/17 13:36:16;;;;;;;;;;;20.30;57.80;;;;;;6320720;28;19912;-71
2023/05/17 13:39:16;;;;;;;;;;;20.30;57.80;;;;;;6320754;28;20328;-71
2023/05/17 13:42:17;;;;;;;;;;;20.30;57.80;;;;;;6320729;28;20305;-71
2023/05/17 13:45:17;;;;;;;;;;;20.30;57.90;;;;;;6318819;28;19977;-72
2023/05/17 13:48:18;;;;;;;;;;;20.30;57.90;;;;;;6320567;28;19908;-72
2023/05/17 13:51:18;;;;;;;;;;;20.30;57.80;;;;;;6320286;28;19935;-72
2023/05/17 13:54:19;;;;;;;;;;;20.20;57.70;;;;;;6320204;28;19975;-72
2023/05/17 13:57:20;;;;;;;;;;;20.30;57.80;;;;;;6320767;28;20251;-71
2023/05/17 14:00:20;;;;;;;;;;;20.30;57.80;;;;;;6323070;28;19943;-72
2023/05/17 14:03:21;;;;;;;;;;;20.30;57.80;;;;;;6325601;28;19915;-72
2023/05/17 14:06:21;;;;;;;;;;;20.30;58.00;;;;;;6325760;28;20328;-72
2023/05/17 14:09:22;;;;;;;;;;;20.30;57.80;;;;;;6325347;28;19961;-72
2023/05/17 14:12:23;;;;;;;;;;;20.30;57.80;;;;;;6325353;28;19916;-71
2023/05/17 14:15:24;;;;;;;;;;;20.20;57.70;;;;;;6325241;28;19947;-71
2023/05/17 14:18:24;;;;;;;;;;;20.30;57.80;;;;;;6325193;28;20277;-71
2023/05/17 14:21:25;;;;;;;;;;;20.30;57.90;;;;;;6324724;28;20422;-71
2023/05/17 14:24:25;;;;;;;;;;;20.20;57.80;;;;;;6324991;28;19912;-71
2023/05/17 14:27:26;;;;;;;;;;;20.20;57.80;;;;;;6324572;28;19908;-71
2023/05/17 14:30:26;;;;;;;;;;;20.30;57.90;;;;;;6323436;28;19908;-71
2023/05/17 14:33:27;;;;;;;;;;;20.30;57.90;;;;;;6324308;28;19920;-71
2023/05/17 14:36:28;;;;;;;;;;;20.30;57.90;;;;;;6324564;28;20027;-71
2023/05/17 14:39:28;;;;;;;;;;;20.30;57.90;;;;;;6324684;28;19908;-71
2023/05/17 14:42:30;;;;;;;;;;;20.30;57.90;;;;;;6324409;28;19915;-71
2023/05/17 14:45:30;;;;;;;;;;;20.20;57.80;;;;;;6324634;28;19951;-71
2023/05/17 14:48:32;;;;;;;;;;;20.20;57.80;;;;;;6324427;28;19912;-71
2023/05/17 14:51:33;;;;;;;;;;;20.20;57.80;;;;;;6324647;28;19908;-71
2023/05/17 14:54:34;;;;;;;;;;;20.30;57.90;;;;;;6324080;28;19920;-71
2023/05/17 14:57:34;;;;;;;;;;;20.20;57.80;;;;;;6324439;28;19908;-71
2023/05/17 15:00:35;;;;;;;;;;;20.30;57.90;;;;;;6324126;28;19908;-71
2023/05/17 15:03:35;;;;;;;;;;;20.20;57.80;;;;;;6323924;28;19908;-72
2023/05/17 15:06:37;;;;;;;;;;;20.20;57.80;;;;;;6324120;28;19950;-71
2023/05/17 15:09:40;;;;;;;;;;;20.20;57.80;;;;;;6324101;28;19919;-71
2023/05/17 15:12:40;;;;;;;;;;;20.30;57.90;;;;;;6323899;28;19969;-71
2023/05/17 15:15:42;;;;;;;;;;;20.30;57.90;;;;;;6323796;28;19908;-71
2023/05/17 15:18:42;;;;;;;;;;;20.20;57.90;;;;;;6323539;28;19908;-71
2023/05/17 15:21:43;;;;;;;;;;;20.30;58.00;;;;;;6323407;28;20369;-71
2023/05/17 15:24:44;;;;;;;;;;;20.20;57.90;;;;;;6323590;28;19912;-71
2023/05/17 15:27:45;;;;;;;;;;;20.30;58.00;;;;;;6323562;28;19908;-71
2023/05/17 15:30:46;;;;;;;;;;;20.20;57.90;;;;;;6307720;28;20398;-71
2023/05/17 15:33:46;;;;;;;;;;;20.20;57.90;;;;;;6321994;28;19923;-71
2023/05/17 15:36:47;;;;;;;;;;;20.30;58.00;;;;;;6321097;28;20321;-71
2023/05/17 15:39:47;;;;;;;;;;;20.20;57.90;;;;;;6322100;28;19915;-71
2023/05/17 15:42:48;;;;;;;;;;;20.30;57.90;;;;;;6321991;28;19908;-71
2023/05/17 15:45:49;;;;;;;;;;;20.20;57.80;;;;;;6321385;28;19912;-71
2023/05/17 15:48:49;;;;;;;;;;;20.20;57.90;;;;;;6321260;28;19950;-71
2023/05/17 15:51:50;;;;;;;;;;;20.20;57.80;;;;;;6318924;28;19909;-71
2023/05/17 15:54:52;;;;;;;;;;;20.30;57.90;;;;;;6332393;28;19909;-71
2023/05/17 15:57:53;;;;;;;;;;;20.20;57.80;;;;;;6332353;28;19908;-71
2023/05/17 16:00:53;;;;;;;;;;;20.20;57.80;;;;;;6346143;28;19914;-71
2023/05/17 16:03:54;;;;;;;;;;;20.20;57.80;;;;;;6346777;28;20279;-71
2023/05/17 16:06:55;;;;;;;;;;;20.20;57.80;;;;;;6341073;28;19907;-71
2023/05/17 16:09:55;;;;;;;;;;;20.20;57.80;;;;;;6346357;28;19931;-71
2023/05/17 16:12:56;;;;;;;;;;;20.20;57.80;;;;;;6346636;28;20439;-71
2023/05/17 16:15:57;;;;;;;;;;;20.20;57.80;;;;;;6345731;28;19912;-71
2023/05/17 16:18:57;;;;;;;;;;;20.20;57.80;;;;;;6335812;28;19997;-71
2023/05/17 16:21:58;;;;;;;;;;;20.20;57.80;;;;;;6337214;28;19908;-71
2023/05/17 16:24:59;;;;;;;;;;;20.20;57.80;;;;;;6351645;27;19915;-71
2023/05/17 16:27:59;;;;;;;;;;;20.20;57.80;;;;;;6344604;27;19953;-71
2023/05/17 16:31:00;;;;;;;;;;;20.20;57.80;;;;;;6342449;28;19914;-71
2023/05/17 16:34:00;;;;;;;;;;;20.20;57.80;;;;;;6343527;28;19931;-71
2023/05/17 16:37:03;;;;;;;;;;;20.20;57.80;;;;;;6342912;28;19915;-71
2023/05/17 16:40:03;;;;;;;;;;;20.20;57.80;;;;;;6343045;28;19912;-71
2023/05/17 16:43:04;;;;;;;;;;;20.20;57.80;;;;;;6340524;28;19912;-71
2023/05/17 16:46:04;;;;;;;;;;;20.20;57.90;;;;;;6342863;28;19961;-71
2023/05/17 16:49:06;;;;;;;;;;;20.20;57.90;;;;;;6343485;28;20373;-71
2023/05/17 16:52:06;;;;;;;;;;;20.20;57.80;;;;;;6342788;28;19920;-70
2023/05/17 16:55:08;;;;;;;;;;;20.20;57.90;;;;;;6343357;28;19915;-71
2023/05/17 16:58:09;;;;;;;;;;;20.20;57.90;;;;;;6343580;28;20116;-71
2023/05/17 17:01:09;;;;;;;;;;;20.20;57.90;;;;;;6338726;28;19918;-71
2023/05/17 17:04:10;;;;;;;;;;;20.20;57.90;;;;;;6328659;28;19908;-71
2023/05/17 17:07:10;;;;;;;;;;;20.20;57.90;;;;;;6324105;28;20246;-71
2023/05/17 17:10:11;;;;;;;;;;;20.20;57.70;;;;;;6314787;28;19912;-71
2023/05/17 17:13:12;;;;;;;;;;;20.20;57.60;;;;;;6342678;28;20385;-70
2023/05/17 17:16:12;;;;;;;;;;;20.20;57.30;;;;;;6341988;28;19912;-71
2023/05/17 17:19:13;;;;;;;;;;;20.20;57.40;;;;;;6343050;28;19914;-71
2023/05/17 17:22:15;;;;;;;;;;;20.20;57.00;;;;;;6340621;28;20018;-71
2023/05/17 17:25:15;;;;;;;;;;;20.20;56.70;;;;;;6342341;28;19908;-71
2023/05/17 17:28:16;;;;;;;;;;;20.20;52.90;;;;;;6342698;28;19935;-71
2023/05/17 17:31:17;;;;;;;;;;;20.20;55.10;;;;;;6341398;28;20353;-71
2023/05/17 17:34:17;;;;;;;;;;;20.20;55.30;;;;;;6343073;28;20603;-71
2023/05/17 17:37:18;;;;;;;;;;;20.20;54.60;;;;;;6347296;28;19953;-71